Time;durP1;ratioP1;P1;durP2;ratioP2;P2;SDS_P1;SDS_P2;PMS_P1;PMS_P2;Temp;Humidity;BMP_temperature;BMP_pressure;BME280_temperature;BME280_humidity;BME280_pressure;Samples;Min_cycle;Max_cycle;Signal;HPM_P1;HPM_P2
2022/03/30 00:01:26;;;;;;;26.83;15.73;;;8.80;99.90;;;;;;4974490;28;20780;-73
2022/03/30 00:03:52;;;;;;;32.83;15.97;;;8.80;99.90;;;;;;4974785;28;20423;-73
2022/03/30 00:06:17;;;;;;;24.87;16.07;;;8.80;99.90;;;;;;4972441;28;20546;-74
2022/03/30 00:08:43;;;;;;;27.33;16.70;;;8.80;99.90;;;;;;4973447;28;20649;-73
2022/03/30 00:11:10;;;;;;;24.90;16.00;;;8.90;99.90;;;;;;4974380;28;20201;-73
2022/03/30 00:13:37;;;;;;;27.83;15.10;;;8.90;99.90;;;;;;4974587;28;20497;-73
2022/03/30 00:16:07;;;;;;;27.50;16.47;;;8.90;99.90;;;;;;4974561;28;20988;-73
2022/03/30 00:18:33;;;;;;;37.73;16.80;;;9.00;99.90;;;;;;4974547;28;20468;-73
2022/03/30 00:20:59;;;;;;;29.07;17.43;;;9.00;99.90;;;;;;4974449;28;20933;-73
2022/03/30 00:23:25;;;;;;;27.37;16.93;;;9.10;99.90;;;;;;4974457;28;20509;-73
2022/03/30 00:25:51;;;;;;;28.00;14.60;;;9.20;99.90;;;;;;4974417;28;20188;-73
2022/03/30 00:28:17;;;;;;;22.33;14.00;;;9.20;99.90;;;;;;4974405;28;20421;-73
2022/03/30 00:30:43;;;;;;;27.10;15.83;;;9.20;99.90;;;;;;4973885;28;20196;-71
2022/03/30 00:33:09;;;;;;;24.33;15.37;;;9.20;99.90;;;;;;4974157;28;20479;-73
2022/03/30 00:35:34;;;;;;;24.50;15.67;;;9.20;99.90;;;;;;4974144;28;20930;-73
2022/03/30 00:38:00;;;;;;;26.70;15.40;;;9.20;99.90;;;;;;4973135;28;20651;-73
2022/03/30 00:40:26;;;;;;;34.13;16.17;;;9.30;99.90;;;;;;4973843;28;20962;-72
2022/03/30 00:42:51;;;;;;;25.17;15.37;;;9.30;99.90;;;;;;4974019;28;20201;-73
2022/03/30 00:45:21;;;;;;;31.50;16.37;;;9.30;99.90;;;;;;4973997;28;20420;-73
2022/03/30 00:47:47;;;;;;;24.07;15.00;;;9.40;99.90;;;;;;4974099;28;20265;-73
2022/03/30 00:50:17;;;;;;;25.83;15.63;;;9.40;99.90;;;;;;4976557;28;20421;-73
2022/03/30 00:52:45;;;;;;;37.17;15.90;;;9.40;99.90;;;;;;4987681;28;20461;-73
2022/03/30 00:55:13;;;;;;;31.70;19.13;;;9.40;99.90;;;;;;4988008;28;20422;-73
2022/03/30 00:57:39;;;;;;;32.97;18.13;;;9.50;99.90;;;;;;4981525;28;20504;-73
2022/03/30 02:32:44;;;;;;;33.20;18.70;;;9.80;99.90;;;;;;5150522;23;20501;-68
2022/03/30 02:35:10;;;;;;;29.60;18.10;;;9.90;99.90;;;;;;4955982;28;20413;-72
2022/03/30 02:37:35;;;;;;;34.87;20.43;;;9.80;99.90;;;;;;4957335;28;20434;-70
2022/03/30 02:40:01;;;;;;;27.23;17.70;;;9.80;99.90;;;;;;4949962;28;20555;-72
2022/03/30 02:42:27;;;;;;;33.63;18.70;;;9.80;99.90;;;;;;4937403;29;20208;-72
2022/03/30 02:44:52;;;;;;;33.10;19.30;;;9.70;99.90;;;;;;4938077;29;20172;-72
2022/03/30 02:48:17;;;;;;;30.87;18.57;;;9.70;99.90;;;;;;4937203;29;20683;-72
2022/03/30 02:50:04;;;;;;;38.73;19.03;;;9.70;99.90;;;;;;4937460;29;20226;-71
2022/03/30 02:52:29;;;;;;;38.30;19.00;;;9.60;99.90;;;;;;4936842;29;20472;-71
2022/03/30 02:54:55;;;;;;;24.60;17.10;;;9.70;99.90;;;;;;4937664;29;20212;-71
2022/03/30 02:57:20;;;;;;;29.77;18.10;;;9.60;99.90;;;;;;4937038;29;20224;-72
2022/03/30 02:59:46;;;;;;;39.40;18.63;;;9.60;99.90;;;;;;4937294;29;20187;-72
2022/03/30 03:02:11;;;;;;;31.87;18.73;;;9.60;99.90;;;;;;4937045;29;20568;-72
2022/03/30 03:04:38;;;;;;;27.90;16.90;;;9.60;99.90;;;;;;4937462;29;20189;-71
2022/03/30 03:07:04;;;;;;;34.63;19.07;;;9.60;99.90;;;;;;4936931;29;20191;-71
2022/03/30 03:09:30;;;;;;;28.73;17.53;;;9.60;99.90;;;;;;4937326;29;20792;-72
2022/03/30 03:11:55;;;;;;;25.40;18.73;;;9.60;99.90;;;;;;4937114;29;20444;-72
2022/03/30 03:14:21;;;;;;;35.20;19.27;;;9.60;99.90;;;;;;4936894;29;20211;-72
2022/03/30 03:16:47;;;;;;;31.53;17.53;;;9.50;99.90;;;;;;4937361;29;20226;-72
2022/03/30 03:19:12;;;;;;;30.00;17.30;;;9.50;99.90;;;;;;4936800;29;20263;-71
2022/03/30 03:21:38;;;;;;;28.47;17.27;;;9.50;99.90;;;;;;4937008;29;20718;-71
2022/03/30 03:24:03;;;;;;;27.50;16.83;;;9.50;99.90;;;;;;4936860;29;20250;-72
2022/03/30 03:26:29;;;;;;;28.00;16.90;;;9.50;99.90;;;;;;4937007;29;20565;-72
2022/03/30 03:28:55;;;;;;;36.87;17.17;;;9.50;99.90;;;;;;4936816;29;20529;-72
2022/03/30 03:31:21;;;;;;;32.63;16.90;;;9.50;99.90;;;;;;4936398;29;20231;-71
2022/03/30 03:33:47;;;;;;;29.53;15.80;;;9.50;99.90;;;;;;4936776;29;20472;-71
2022/03/30 03:36:12;;;;;;;28.70;17.30;;;9.60;99.90;;;;;;4936849;29;20184;-71
2022/03/30 03:38:38;;;;;;;34.27;17.83;;;9.60;99.90;;;;;;4935595;29;20278;-71
2022/03/30 03:41:03;;;;;;;35.20;18.23;;;9.60;99.90;;;;;;4936037;29;20211;-71
2022/03/30 03:43:29;;;;;;;33.80;19.37;;;9.60;99.90;;;;;;4936807;29;20193;-71
2022/03/30 03:45:55;;;;;;;29.53;18.70;;;9.60;99.90;;;;;;4936416;29;20202;-71
2022/03/30 03:48:20;;;;;;;32.80;16.90;;;9.60;99.90;;;;;;4936637;29;20189;-72
2022/03/30 03:50:46;;;;;;;35.80;16.80;;;9.60;99.90;;;;;;4936159;29;20595;-71
2022/03/30 03:53:11;;;;;;;25.47;16.43;;;9.60;99.90;;;;;;4936297;29;20208;-72
2022/03/30 03:55:37;;;;;;;25.23;15.60;;;9.60;99.90;;;;;;4936321;29;20762;-72
2022/03/30 03:58:05;;;;;;;31.53;17.03;;;9.60;99.90;;;;;;4936454;29;20228;-71
2022/03/30 04:00:30;;;;;;;32.17;17.37;;;9.60;99.90;;;;;;4935926;29;20681;-70
2022/03/30 04:02:56;;;;;;;28.30;17.40;;;9.70;99.90;;;;;;4936984;29;20448;-72
2022/03/30 04:05:21;;;;;;;30.67;17.60;;;9.70;99.90;;;;;;4936159;29;20628;-72
2022/03/30 04:07:47;;;;;;;26.57;18.10;;;9.70;99.90;;;;;;4936598;29;20177;-72
2022/03/30 04:10:12;;;;;;;27.23;16.93;;;9.70;99.90;;;;;;4936157;29;20191;-72
2022/03/30 04:12:39;;;;;;;31.63;18.40;;;9.80;99.90;;;;;;4936215;29;20713;-73
2022/03/30 04:15:06;;;;;;;28.23;16.30;;;9.80;99.90;;;;;;4936197;29;20547;-72
2022/03/30 04:17:32;;;;;;;47.07;18.77;;;9.80;99.90;;;;;;4936000;29;20423;-72
2022/03/30 04:19:58;;;;;;;32.93;19.03;;;9.80;99.90;;;;;;4936213;29;20409;-72
2022/03/30 04:22:23;;;;;;;30.87;18.10;;;9.80;99.90;;;;;;4935605;29;20443;-72
2022/03/30 04:24:49;;;;;;;34.50;18.30;;;9.80;99.90;;;;;;4936293;29;20590;-72
2022/03/30 04:27:15;;;;;;;28.17;17.57;;;9.80;99.90;;;;;;4935963;29;20180;-72
2022/03/30 04:29:40;;;;;;;35.77;18.07;;;9.90;99.90;;;;;;4936294;29;20176;-72
2022/03/30 04:32:07;;;;;;;26.87;18.97;;;9.90;99.90;;;;;;4935890;29;20203;-72
2022/03/30 04:34:32;;;;;;;29.87;17.83;;;9.80;99.90;;;;;;4935874;29;20596;-71
2022/03/30 04:36:58;;;;;;;34.90;18.70;;;9.80;99.90;;;;;;4935780;29;20425;-72
2022/03/30 04:39:23;;;;;;;40.80;18.57;;;9.90;99.90;;;;;;4935499;29;20204;-72
2022/03/30 04:41:49;;;;;;;42.13;19.80;;;9.80;99.90;;;;;;4935327;29;20887;-71
2022/03/30 04:44:14;;;;;;;31.57;17.70;;;9.90;99.90;;;;;;4935406;29;20193;-72
2022/03/30 04:46:40;;;;;;;39.27;21.20;;;9.80;99.90;;;;;;4935592;29;20250;-72
2022/03/30 04:49:05;;;;;;;27.07;15.47;;;9.80;99.90;;;;;;4935295;29;20232;-71
2022/03/30 04:51:31;;;;;;;31.43;15.40;;;9.90;99.90;;;;;;4934594;29;20283;-72
2022/03/30 04:53:56;;;;;;;24.20;14.90;;;9.90;99.90;;;;;;4935141;29;20207;-71
2022/03/30 04:56:22;;;;;;;32.90;14.70;;;10.00;99.90;;;;;;4934933;29;20184;-72
2022/03/30 04:58:50;;;;;;;39.63;19.60;;;10.00;99.90;;;;;;4934750;29;20258;-72
2022/03/30 05:01:15;;;;;;;31.20;16.40;;;10.00;99.90;;;;;;4939105;29;20198;-73
2022/03/30 05:03:41;;;;;;;26.40;13.50;;;10.00;99.90;;;;;;4950696;29;20451;-74
2022/03/30 05:06:06;;;;;;;30.23;15.87;;;10.00;99.90;;;;;;4942637;29;20184;-72
2022/03/30 05:08:32;;;;;;;28.30;13.67;;;10.00;99.90;;;;;;4934822;29;20192;-73
2022/03/30 05:10:58;;;;;;;35.73;14.27;;;9.90;99.90;;;;;;4934362;29;20199;-73
2022/03/30 05:13:23;;;;;;;33.03;13.70;;;9.80;99.90;;;;;;4934631;29;20366;-75
2022/03/30 05:15:49;;;;;;;33.53;14.20;;;9.80;99.90;;;;;;4935225;29;20266;-73
2022/03/30 05:18:14;;;;;;;25.73;13.30;;;9.80;99.90;;;;;;4934603;29;20180;-73
2022/03/30 05:20:44;;;;;;;32.60;14.33;;;9.70;99.90;;;;;;4944621;28;20190;-73
2022/03/30 05:23:09;;;;;;;27.05;14.40;;;9.60;99.90;;;;;;4953211;28;20428;-74
2022/03/30 05:25:35;;;;;;;31.87;12.77;;;9.60;99.90;;;;;;4953654;28;20277;-73
2022/03/30 05:28:00;;;;;;;29.00;12.47;;;9.50;99.90;;;;;;4953835;28;20186;-73
2022/03/30 05:30:26;;;;;;;32.70;14.73;;;9.50;99.90;;;;;;4953483;28;20190;-73
2022/03/30 05:32:52;;;;;;;29.33;14.40;;;9.40;99.90;;;;;;4953419;28;20309;-73
2022/03/30 05:35:18;;;;;;;29.50;14.37;;;9.40;99.90;;;;;;4953476;28;20204;-73
2022/03/30 05:37:48;;;;;;;37.63;14.63;;;9.30;99.90;;;;;;4953572;28;20922;-73
2022/03/30 05:40:15;;;;;;;25.17;13.67;;;9.30;99.90;;;;;;4953458;28;20181;-73
2022/03/30 05:42:41;;;;;;;27.43;13.97;;;9.30;99.90;;;;;;4953425;28;20451;-73
2022/03/30 05:45:07;;;;;;;30.77;14.53;;;9.30;99.90;;;;;;4953549;28;20424;-74
2022/03/30 05:47:33;;;;;;;30.97;14.60;;;9.30;99.90;;;;;;4953553;28;20185;-73
2022/03/30 05:49:59;;;;;;;28.97;13.77;;;9.30;99.90;;;;;;4953642;28;20437;-73
2022/03/30 05:52:24;;;;;;;33.50;14.43;;;9.30;99.90;;;;;;4953043;28;20886;-75
2022/03/30 05:54:49;;;;;;;44.47;14.80;;;9.30;99.90;;;;;;4953570;28;20214;-74
2022/03/30 05:57:16;;;;;;;34.17;15.20;;;9.30;99.90;;;;;;4953237;28;20222;-75
2022/03/30 05:59:43;;;;;;;61.83;17.70;;;9.20;99.90;;;;;;4953517;28;20183;-75
2022/03/30 06:02:10;;;;;;;55.33;16.73;;;9.20;99.90;;;;;;4952679;28;20434;-76
2022/03/30 06:04:38;;;;;;;33.93;14.27;;;9.20;99.90;;;;;;4952776;28;20845;-75
2022/03/30 06:07:05;;;;;;;29.67;14.80;;;9.20;99.90;;;;;;4953391;28;20915;-75
2022/03/30 06:09:33;;;;;;;24.97;13.80;;;9.20;99.90;;;;;;4953132;28;20414;-75
2022/03/30 06:12:03;;;;;;;38.37;16.43;;;9.20;99.90;;;;;;4953328;28;20446;-75
2022/03/30 06:14:30;;;;;;;43.10;15.70;;;9.20;99.90;;;;;;4954571;28;20458;-75
2022/03/30 06:16:55;;;;;;;29.40;15.80;;;9.20;99.90;;;;;;4953389;28;21060;-73
2022/03/30 06:19:21;;;;;;;35.17;14.60;;;9.20;99.90;;;;;;4952950;28;20531;-74
2022/03/30 06:21:48;;;;;;;29.93;15.20;;;9.20;99.90;;;;;;4953092;28;20227;-74
2022/03/30 06:24:14;;;;;;;28.23;14.87;;;9.10;99.90;;;;;;4952965;28;20261;-74
2022/03/30 06:26:40;;;;;;;37.00;16.30;;;9.20;99.90;;;;;;4953342;28;20436;-73
2022/03/30 06:29:06;;;;;;;29.70;16.20;;;9.10;99.90;;;;;;4953022;29;21063;-74
2022/03/30 06:31:32;;;;;;;34.03;14.93;;;9.10;99.90;;;;;;4952625;28;20465;-74
2022/03/30 06:33:58;;;;;;;37.07;15.93;;;9.10;99.90;;;;;;4953254;28;20473;-74
2022/03/30 06:36:24;;;;;;;34.50;14.70;;;9.10;99.90;;;;;;4952876;28;20178;-74
2022/03/30 06:38:50;;;;;;;24.50;15.13;;;9.20;99.90;;;;;;4953265;28;20421;-74
2022/03/30 06:41:19;;;;;;;35.93;14.43;;;9.20;99.90;;;;;;4951110;28;20202;-76
2022/03/30 06:43:46;;;;;;;30.00;17.67;;;9.20;99.90;;;;;;4952115;28;20224;-74
2022/03/30 06:46:16;;;;;;;24.93;14.97;;;9.20;99.90;;;;;;4950980;28;20477;-75
2022/03/30 06:48:42;;;;;;;36.03;13.73;;;9.20;99.90;;;;;;4951659;28;20431;-73
2022/03/30 06:51:08;;;;;;;36.07;14.17;;;9.30;99.90;;;;;;4951652;28;20441;-74
2022/03/30 06:53:34;;;;;;;42.87;16.97;;;9.30;99.90;;;;;;4952207;28;20488;-74
2022/03/30 06:56:00;;;;;;;23.03;13.77;;;9.40;99.90;;;;;;4952234;28;20403;-74
2022/03/30 06:58:25;;;;;;;33.67;14.40;;;9.30;99.90;;;;;;4952250;28;20185;-74
2022/03/30 07:00:51;;;;;;;28.03;16.70;;;9.30;99.90;;;;;;4952701;28;20234;-74
2022/03/30 07:03:17;;;;;;;27.87;15.53;;;9.30;99.90;;;;;;4952670;28;20181;-75
2022/03/30 07:05:42;;;;;;;24.70;13.93;;;9.30;99.90;;;;;;4952759;28;20485;-74
2022/03/30 07:10:52;;;;;;;29.77;15.63;;;9.30;99.90;;;;;;4952590;28;20250;-74
2022/03/30 07:13:19;;;;;;;27.50;14.87;;;9.40;99.90;;;;;;4951166;29;20474;-74
2022/03/30 07:15:45;;;;;;;28.33;14.17;;;9.40;99.90;;;;;;4955509;28;20222;-74
2022/03/30 07:18:10;;;;;;;29.50;14.07;;;9.40;99.90;;;;;;4956059;28;20484;-74
2022/03/30 07:20:36;;;;;;;31.03;15.87;;;9.40;99.90;;;;;;4956005;28;20179;-74
2022/03/30 07:23:02;;;;;;;28.80;14.27;;;9.60;99.90;;;;;;4956118;28;20184;-74
2022/03/30 07:25:29;;;;;;;33.57;15.33;;;9.60;99.90;;;;;;4955959;28;20186;-74
2022/03/30 07:27:58;;;;;;;30.63;16.23;;;9.60;99.90;;;;;;4954873;29;20684;-74
2022/03/30 07:30:25;;;;;;;31.70;17.60;;;9.60;99.90;;;;;;4955607;28;20448;-73
2022/03/30 07:32:52;;;;;;;27.90;14.63;;;9.60;99.90;;;;;;4955762;28;20855;-75
2022/03/30 07:35:20;;;;;;;21.93;14.40;;;9.70;99.90;;;;;;4955646;28;20420;-74
2022/03/30 07:37:46;;;;;;;28.60;15.63;;;9.70;99.90;;;;;;4956049;28;20414;-74
2022/03/30 07:40:15;;;;;;;40.47;17.90;;;9.80;99.90;;;;;;4955440;28;20834;-75
2022/03/30 07:42:41;;;;;;;20.87;15.00;;;9.90;99.90;;;;;;4955745;28;20500;-74
2022/03/30 07:45:08;;;;;;;39.37;17.60;;;9.90;99.90;;;;;;4955634;28;20416;-74
2022/03/30 07:47:34;;;;;;;36.00;17.30;;;9.90;99.90;;;;;;4955897;29;20175;-74
2022/03/30 07:50:00;;;;;;;31.47;16.63;;;10.00;99.90;;;;;;4955827;28;20426;-74
2022/03/30 07:52:26;;;;;;;27.20;16.97;;;10.00;99.90;;;;;;4955468;28;20443;-74
2022/03/30 07:54:53;;;;;;;37.63;17.30;;;10.00;99.90;;;;;;4955662;28;20471;-74
2022/03/30 07:57:25;;;;;;;33.33;18.67;;;10.10;99.90;;;;;;4955521;28;20426;-74
2022/03/30 07:59:51;;;;;;;32.47;17.73;;;10.10;99.90;;;;;;4955693;28;20451;-74
2022/03/30 08:02:18;;;;;;;39.03;17.40;;;10.10;99.90;;;;;;4955582;28;20486;-73
2022/03/30 08:04:44;;;;;;;40.23;21.70;;;10.20;99.90;;;;;;4955483;28;20206;-74
2022/03/30 08:07:09;;;;;;;48.63;22.30;;;10.20;99.90;;;;;;4955348;28;20918;-74
2022/03/30 08:09:35;;;;;;;36.30;19.17;;;10.30;99.90;;;;;;4955522;28;20286;-74
2022/03/30 08:12:00;;;;;;;35.33;20.53;;;10.40;99.90;;;;;;4955250;28;20726;-74
2022/03/30 08:14:26;;;;;;;36.73;16.57;;;10.40;99.90;;;;;;4955314;28;20214;-74
2022/03/30 08:16:52;;;;;;;35.30;18.80;;;10.40;99.90;;;;;;4955396;28;20672;-74
2022/03/30 08:19:17;;;;;;;32.90;16.37;;;10.50;99.90;;;;;;4954993;28;20175;-73
2022/03/30 08:24:27;;;;;;;32.17;18.40;;;10.50;99.90;;;;;;4955408;29;20334;-74
2022/03/30 08:26:52;;;;;;;25.77;14.93;;;10.50;99.90;;;;;;4954394;28;20420;-75
2022/03/30 08:29:18;;;;;;;30.13;15.40;;;10.50;99.90;;;;;;4954985;28;20404;-74
2022/03/30 08:31:44;;;;;;;29.97;15.73;;;10.60;99.90;;;;;;4954970;28;20211;-74
2022/03/30 08:34:10;;;;;;;32.90;15.80;;;10.60;99.90;;;;;;4954882;28;20623;-74
2022/03/30 08:36:35;;;;;;;35.67;14.93;;;10.50;99.90;;;;;;4955081;28;20264;-74
2022/03/30 08:39:10;;;;;;;30.33;15.47;;;10.60;99.90;;;;;;4954889;28;20656;-74
2022/03/30 08:41:39;;;;;;;26.30;13.63;;;10.50;99.90;;;;;;4954748;28;20187;-74
2022/03/30 08:44:05;;;;;;;30.80;13.50;;;10.40;99.90;;;;;;4955007;28;20420;-74
2022/03/30 08:46:31;;;;;;;28.97;13.03;;;10.40;99.90;;;;;;4954577;29;20418;-74
2022/03/30 08:48:57;;;;;;;29.63;13.53;;;10.40;99.90;;;;;;4954783;28;20222;-72
2022/03/30 08:51:23;;;;;;;29.60;12.30;;;10.30;99.90;;;;;;4952594;28;20805;-74
2022/03/30 08:53:49;;;;;;;29.80;12.60;;;10.30;99.90;;;;;;4952901;28;20207;-74
2022/03/30 08:56:14;;;;;;;31.93;13.40;;;10.20;99.90;;;;;;4952687;28;20425;-75
2022/03/30 08:58:41;;;;;;;20.43;12.03;;;10.20;99.90;;;;;;4952954;28;20684;-74
2022/03/30 09:01:08;;;;;;;31.40;13.77;;;10.20;99.90;;;;;;4952138;28;20195;-74
2022/03/30 09:03:34;;;;;;;25.13;12.00;;;10.20;99.90;;;;;;4952536;28;20423;-74
2022/03/30 09:06:00;;;;;;;31.67;13.30;;;10.30;99.90;;;;;;4953505;28;20476;-74
2022/03/30 09:08:27;;;;;;;25.10;15.10;;;10.30;99.90;;;;;;4954270;28;20590;-74
2022/03/30 09:10:54;;;;;;;36.57;13.33;;;10.30;99.90;;;;;;4954247;28;20420;-74
2022/03/30 09:13:20;;;;;;;21.43;12.70;;;10.40;99.90;;;;;;4954017;28;20538;-74
2022/03/30 09:15:48;;;;;;;31.50;13.20;;;10.50;99.90;;;;;;4953840;28;20447;-74
2022/03/30 09:18:15;;;;;;;27.43;11.50;;;10.60;99.90;;;;;;4953568;28;20184;-74
2022/03/30 09:20:43;;;;;;;25.97;12.07;;;10.70;99.90;;;;;;4954662;28;20428;-74
2022/03/30 09:23:10;;;;;;;28.50;12.73;;;10.70;99.90;;;;;;4954149;28;20483;-74
2022/03/30 09:25:36;;;;;;;24.60;12.00;;;10.70;99.90;;;;;;4954319;28;20510;-75
2022/03/30 09:28:02;;;;;;;23.93;10.80;;;10.60;99.90;;;;;;4954014;28;20522;-74
2022/03/30 09:30:29;;;;;;;32.07;12.53;;;10.60;99.90;;;;;;4953779;28;20173;-73
2022/03/30 09:32:56;;;;;;;32.57;12.90;;;10.70;99.90;;;;;;4953735;28;20495;-74
2022/03/30 09:35:25;;;;;;;24.13;11.60;;;10.70;99.90;;;;;;4953925;28;20499;-75
2022/03/30 09:38:08;;;;;;;29.37;12.87;;;10.70;99.90;;;;;;4953781;28;20419;-74
2022/03/30 09:40:34;;;;;;;22.33;11.80;;;10.70;99.90;;;;;;4953878;28;20419;-74
2022/03/30 09:43:30;;;;;;;37.93;13.77;;;10.70;99.90;;;;;;4953843;28;20431;-74
2022/03/30 09:46:13;;;;;;;24.27;11.90;;;10.60;99.90;;;;;;4953214;28;20462;-74
2022/03/30 09:48:50;;;;;;;21.43;11.10;;;10.60;99.90;;;;;;4953878;28;20984;-74
2022/03/30 09:51:17;;;;;;;30.67;11.90;;;10.60;99.90;;;;;;4953575;28;20967;-74
2022/03/30 09:53:43;;;;;;;28.40;12.80;;;10.70;99.90;;;;;;4954699;28;20463;-73
2022/03/30 09:56:17;;;;;;;29.63;11.87;;;10.70;99.90;;;;;;4953022;28;20561;-74
2022/03/30 09:58:44;;;;;;;28.10;12.17;;;10.80;99.90;;;;;;4953240;28;20420;-73
2022/03/30 10:01:22;;;;;;;30.60;12.50;;;10.80;99.90;;;;;;4967777;28;20446;-74
2022/03/30 10:03:59;;;;;;;18.17;10.93;;;10.80;99.90;;;;;;4946137;28;20928;-74
2022/03/30 10:06:28;;;;;;;23.27;11.30;;;10.80;99.90;;;;;;4968624;28;20422;-74
2022/03/30 10:08:55;;;;;;;24.73;10.60;;;10.90;99.90;;;;;;4968480;28;20424;-74
2022/03/30 10:11:23;;;;;;;26.37;10.50;;;10.90;99.90;;;;;;4951982;28;20468;-74
2022/03/30 10:13:51;;;;;;;22.73;10.97;;;11.00;99.90;;;;;;4953345;28;20471;-74
2022/03/30 10:16:18;;;;;;;14.63;9.30;;;11.00;99.90;;;;;;4953270;28;20929;-74
2022/03/30 10:18:45;;;;;;;20.77;10.47;;;11.00;99.90;;;;;;4972481;28;20406;-72
2022/03/30 10:21:33;;;;;;;34.07;11.93;;;11.00;99.90;;;;;;4971934;28;20435;-74
2022/03/30 10:24:42;;;;;;;18.60;11.03;;;11.00;99.90;;;;;;4962771;28;20474;-72
2022/03/30 10:27:18;;;;;;;26.10;11.30;;;11.00;99.90;;;;;;4952866;28;20429;-73
2022/03/30 10:29:52;;;;;;;20.37;11.07;;;11.00;99.90;;;;;;4953248;28;20416;-74
2022/03/30 10:32:23;;;;;;;24.10;9.90;;;11.10;99.90;;;;;;4956593;28;20462;-74
2022/03/30 10:34:51;;;;;;;24.30;9.73;;;11.10;99.90;;;;;;4963112;28;20495;-73
2022/03/30 10:37:28;;;;;;;18.90;10.20;;;11.20;99.90;;;;;;4953273;28;20848;-74
2022/03/30 10:40:04;;;;;;;24.77;9.77;;;11.20;99.90;;;;;;4954332;28;20477;-74
2022/03/30 10:42:48;;;;;;;22.10;10.07;;;11.30;99.90;;;;;;4955772;28;20427;-74
2022/03/30 10:45:24;;;;;;;14.90;9.37;;;11.40;99.90;;;;;;4952399;29;20427;-74
2022/03/30 10:48:09;;;;;;;19.10;9.33;;;11.50;99.90;;;;;;4953336;28;20443;-73
2022/03/30 10:50:36;;;;;;;14.40;7.60;;;11.60;99.90;;;;;;4955716;28;20408;-74
2022/03/30 10:53:02;;;;;;;15.53;8.67;;;11.60;99.90;;;;;;4955609;29;20554;-74
2022/03/30 10:55:33;;;;;;;12.73;8.23;;;11.60;99.90;;;;;;4957073;28;20443;-74
2022/03/30 10:58:04;;;;;;;28.60;10.23;;;11.60;99.90;;;;;;4957172;28;20428;-74
2022/03/30 11:00:36;;;;;;;17.67;9.70;;;11.50;99.90;;;;;;4956395;28;20423;-74
2022/03/30 11:03:16;;;;;;;18.70;10.63;;;11.40;99.90;;;;;;4956892;28;20423;-74
2022/03/30 11:06:05;;;;;;;24.43;10.47;;;11.30;99.90;;;;;;4956603;28;20428;-74
2022/03/30 11:08:33;;;;;;;18.67;10.00;;;11.20;99.90;;;;;;4956847;28;20420;-74
2022/03/30 11:11:21;;;;;;;21.93;10.60;;;11.20;99.90;;;;;;4956262;28;21012;-74
2022/03/30 11:13:47;;;;;;;20.80;10.20;;;11.30;99.90;;;;;;4956680;28;20459;-74
2022/03/30 11:16:13;;;;;;;19.10;10.83;;;11.30;99.90;;;;;;4956174;28;20423;-74
2022/03/30 11:18:57;;;;;;;20.77;10.37;;;11.20;99.90;;;;;;4955499;29;20650;-74
2022/03/30 11:21:24;;;;;;;21.40;9.67;;;11.20;99.90;;;;;;4955898;28;20447;-75
2022/03/30 11:24:07;;;;;;;20.10;11.00;;;11.30;99.90;;;;;;4955177;29;20420;-74
2022/03/30 11:26:47;;;;;;;25.50;10.77;;;11.30;99.90;;;;;;4956291;28;20944;-74
2022/03/30 11:29:41;;;;;;;19.63;10.33;;;11.30;99.90;;;;;;4956868;28;20416;-74
2022/03/30 11:32:19;;;;;;;22.80;10.63;;;11.30;99.90;;;;;;4955813;28;20456;-74
2022/03/30 11:34:46;;;;;;;28.93;12.20;;;11.30;99.90;;;;;;4957472;28;20460;-74
2022/03/30 11:37:12;;;;;;;33.70;11.23;;;11.30;99.90;;;;;;4956401;28;20416;-74
2022/03/30 11:39:39;;;;;;;23.27;11.10;;;11.40;99.90;;;;;;4956806;28;20491;-75
2022/03/30 11:42:05;;;;;;;17.20;11.10;;;11.40;99.90;;;;;;4956218;28;20463;-74
2022/03/30 11:47:18;;;;;;;30.80;11.70;;;11.40;99.90;;;;;;4955834;29;20203;-74
2022/03/30 11:49:50;;;;;;;27.53;10.90;;;11.50;99.90;;;;;;4956115;28;20429;-74
2022/03/30 11:52:17;;;;;;;23.33;11.50;;;11.50;99.90;;;;;;4955450;28;20451;-74
2022/03/30 11:54:47;;;;;;;28.33;11.33;;;11.50;99.90;;;;;;4955871;28;20964;-75
2022/03/30 11:57:14;;;;;;;19.07;10.60;;;11.50;99.90;;;;;;4955609;28;20416;-74
2022/03/30 11:59:40;;;;;;;26.38;14.00;;;11.50;99.90;;;;;;4955344;28;20451;-74
2022/03/30 12:02:07;;;;;;;24.57;13.03;;;11.40;99.90;;;;;;4955171;28;20193;-74
2022/03/30 12:04:33;;;;;;;29.07;13.33;;;11.40;99.90;;;;;;4955757;28;20642;-74
2022/03/30 12:06:59;;;;;;;28.70;15.60;;;11.40;99.90;;;;;;4955627;28;20783;-74
2022/03/30 12:09:24;;;;;;;21.63;13.80;;;11.40;99.90;;;;;;4955550;28;20424;-74
2022/03/30 12:11:50;;;;;;;21.97;14.40;;;11.40;99.90;;;;;;4956187;28;20199;-74
2022/03/30 12:14:26;;;;;;;27.40;15.57;;;11.40;99.90;;;;;;4954075;29;20279;-75
2022/03/30 12:16:57;;;;;;;28.70;15.70;;;11.50;99.90;;;;;;4955930;28;20188;-74
2022/03/30 12:19:23;;;;;;;26.27;13.50;;;11.50;99.90;;;;;;4957019;28;20933;-76
2022/03/30 12:21:48;;;;;;;19.93;13.10;;;11.50;99.90;;;;;;4960601;28;20488;-74
2022/03/30 12:24:19;;;;;;;11.43;9.87;;;11.40;99.90;;;;;;4955185;28;20192;-74
2022/03/30 12:26:52;;;;;;;9.83;7.90;;;11.20;99.90;;;;;;4955430;28;20179;-73
2022/03/30 12:29:18;;;;;;;7.83;6.17;;;11.10;99.90;;;;;;4955064;28;20419;-73
2022/03/30 12:31:53;;;;;;;9.80;8.40;;;10.80;99.90;;;;;;4957039;28;20541;-73
2022/03/30 12:34:20;;;;;;;9.80;8.20;;;10.50;99.90;;;;;;4957069;28;20471;-74
2022/03/30 12:36:48;;;;;;;9.70;7.70;;;10.40;99.90;;;;;;4955299;28;20418;-74
2022/03/30 12:39:15;;;;;;;8.83;7.97;;;10.30;99.90;;;;;;4955143;28;20954;-74
2022/03/30 12:41:40;;;;;;;8.57;7.67;;;10.20;99.90;;;;;;4954868;28;20443;-72
2022/03/30 12:44:06;;;;;;;9.37;8.20;;;10.10;99.90;;;;;;4961118;28;20418;-73
2022/03/30 12:46:35;;;;;;;10.07;9.07;;;10.00;99.90;;;;;;4974221;28;20565;-73
2022/03/30 12:49:06;;;;;;;10.40;9.30;;;10.00;99.90;;;;;;4972935;28;20183;-74
2022/03/30 12:51:36;;;;;;;10.50;9.40;;;9.90;99.90;;;;;;4973681;28;20446;-73
2022/03/30 12:54:03;;;;;;;10.97;9.17;;;9.80;99.90;;;;;;4974168;28;21011;-74
2022/03/30 12:56:29;;;;;;;11.57;9.83;;;9.80;99.90;;;;;;4974106;28;21215;-74
2022/03/30 12:58:56;;;;;;;12.30;10.23;;;9.70;99.90;;;;;;4974450;28;20424;-74
2022/03/30 13:01:29;;;;;;;10.90;9.50;;;9.70;99.90;;;;;;4973393;28;20203;-74
2022/03/30 13:03:55;;;;;;;10.50;9.40;;;9.70;99.90;;;;;;4974134;28;20425;-74
2022/03/30 13:06:21;;;;;;;13.30;9.77;;;9.60;99.90;;;;;;4973682;28;20432;-74
2022/03/30 13:09:07;;;;;;;13.67;9.67;;;9.60;99.90;;;;;;4974419;28;20185;-74
2022/03/30 13:11:40;;;;;;;12.57;10.00;;;9.50;99.90;;;;;;4971841;28;20530;-74
2022/03/30 13:14:11;;;;;;;15.87;10.97;;;9.60;99.90;;;;;;4973339;28;20492;-74
2022/03/30 13:16:37;;;;;;;13.90;11.60;;;9.70;99.90;;;;;;4975925;28;20422;-76
2022/03/30 13:19:11;;;;;;;11.47;9.90;;;9.80;99.90;;;;;;4972278;28;20419;-79
2022/03/30 13:21:46;;;;;;;14.30;11.70;;;10.00;99.90;;;;;;4973393;28;20837;-74
2022/03/30 13:24:21;;;;;;;13.00;10.30;;;10.20;99.90;;;;;;4973515;28;20468;-74
2022/03/30 13:26:52;;;;;;;11.97;10.63;;;10.30;99.90;;;;;;4973663;28;20410;-74
2022/03/30 13:29:18;;;;;;;13.50;10.80;;;10.30;99.90;;;;;;4973225;28;20509;-75
2022/03/30 13:31:46;;;;;;;12.57;10.87;;;10.10;99.90;;;;;;4973476;28;21006;-76
2022/03/30 13:34:13;;;;;;;13.57;10.73;;;10.20;99.90;;;;;;4973169;28;20474;-76
2022/03/30 13:36:39;;;;;;;22.30;12.03;;;10.20;99.90;;;;;;4973520;28;20418;-77
2022/03/30 13:39:07;;;;;;;13.90;11.83;;;10.20;99.90;;;;;;4973092;28;20419;-77
2022/03/30 13:41:32;;;;;;;16.17;12.60;;;10.20;99.90;;;;;;4972959;28;20434;-73
2022/03/30 13:43:59;;;;;;;15.53;11.30;;;10.20;99.90;;;;;;4972985;28;20410;-75
2022/03/30 13:46:24;;;;;;;14.10;12.00;;;10.30;99.90;;;;;;4973049;28;20199;-74
2022/03/30 13:48:50;;;;;;;15.50;12.47;;;10.50;99.90;;;;;;4973198;28;20753;-75
2022/03/30 13:51:16;;;;;;;14.43;11.57;;;10.60;99.90;;;;;;4972516;28;20838;-73
2022/03/30 13:53:43;;;;;;;15.63;11.83;;;10.80;99.90;;;;;;4973120;28;20462;-74
2022/03/30 13:56:10;;;;;;;13.80;11.77;;;10.80;99.90;;;;;;4972733;28;20498;-74
2022/03/30 13:58:37;;;;;;;14.20;11.40;;;10.90;99.90;;;;;;4973072;28;20441;-73
2022/03/30 14:01:04;;;;;;;14.07;10.23;;;11.00;99.90;;;;;;4972487;28;20447;-74
2022/03/30 14:03:30;;;;;;;13.20;10.93;;;11.00;99.90;;;;;;4973048;28;20411;-75
2022/03/30 14:05:56;;;;;;;10.40;9.00;;;11.10;99.90;;;;;;4972731;28;20439;-75
2022/03/30 14:08:22;;;;;;;9.50;8.50;;;11.10;99.90;;;;;;4972698;28;20415;-75
2022/03/30 14:10:50;;;;;;;9.80;8.80;;;11.00;99.90;;;;;;4972410;28;20427;-75
2022/03/30 14:13:15;;;;;;;14.33;9.40;;;11.00;99.90;;;;;;4972336;28;20462;-75
2022/03/30 14:15:41;;;;;;;12.73;8.90;;;11.00;99.90;;;;;;4972619;28;20518;-74
2022/03/30 14:18:08;;;;;;;13.90;11.07;;;10.90;99.90;;;;;;4972471;28;20171;-74